• Join FlightAware (Why Join?)
  • Login
  • US Flag 
Gobble Gobble! 
04:55PM EST


 

Airport Tracker/Info


-or-


 

Live Flight TrackerFlight Track Log ✈ N523JM ✈ 06-Jun-2014 ✈ KLAS - KOSU

Flight Track Log - Related Links

Times and Time Zones

All times are in EDT time to prevent confusion due to time zone crossing. See the N523JM flight status page for this flight to view local times or setup timezone preferences in your user account.

Time Position Orientation Groundspeed Altitude Reporting Facility
EDT Latitude Longitude Course Direction KTS MPH feet Rate Location/Type
03:05PM 36.0758 -115.1178 88° East 180 207 3,400  Level Los Angeles Center
03:06PM 36.0769 -115.0683 88° East 197 227 5,700 3,120 Climbing Los Angeles Center
03:06PM 36.0769 -115.0428 90° East 205 236 6,900 2,760 Climbing Los Angeles Center
03:07PM 36.0803 -114.9950 85° East 212 244 8,600 2,940 Climbing Los Angeles Center
03:07PM 36.0819 -114.9667 86° East 219 252 9,900 3,120 Climbing Los Angeles Center
03:08PM 36.0889 -114.9144 81° East 219 252 11,900 2,700 Climbing Los Angeles Center
03:08PM 36.0942 -114.8853 77° East 231 266 12,700 1,920 Climbing Los Angeles Center
03:09PM 36.1000 -114.8383 81° East 238 274 13,900 1,680 Climbing Los Angeles Center
03:10PM 36.1153 -114.7431 79° East 277 319 15,600 1,620 Climbing Los Angeles Center
03:11PM 36.1367 -114.6050 79° East 339 390 17,300 1,620 Climbing Los Angeles Center
03:12PM 36.1567 -114.4775 79° East 371 427 19,000 1,500 Climbing Los Angeles Center
03:13PM 36.1778 -114.3408 79° East 398 458 20,500 1,440 Climbing Los Angeles Center
03:14PM 36.1989 -114.1994 79° East 414 476 22,000 1,380 Climbing Los Angeles Center
03:15PM 36.2153 -114.0533 82° East 423 487 23,400 1,380 Climbing Los Angeles Center
03:16PM 36.2325 -113.9058 82° East 431 496 24,900 1,500 Climbing Los Angeles Center
03:17PM 36.2539 -113.7267 82° East 435 501 26,600 1,500 Climbing Los Angeles Center
03:18PM 36.2717 -113.5750 82° East 441 507 28,000 1,200 Climbing Los Angeles Center
03:19PM 36.2889 -113.4192 82° East 451 519 29,200 1,140 Climbing Los Angeles Center
03:20PM 36.3072 -113.2639 82° East 453 521 30,400 1,020 Climbing Los Angeles Center
03:21PM 36.3517 -113.1119 70° East 467 537 31,400 900 Climbing Los Angeles Center
03:22PM 36.4056 -112.9642 66° East 467 537 32,300 900 Climbing Los Angeles Center
03:23PM 36.4694 -112.7833 66° East 471 542 33,300 960 Climbing Los Angeles Center
03:24PM 36.5219 -112.6308 67° East 474 545 34,300 840 Climbing Los Angeles Center
03:25PM 36.5758 -112.4800 66° East 478 550 35,100 720 Climbing Los Angeles Center
03:26PM 36.6292 -112.3264 67° East 481 554 35,900 720 Climbing Los Angeles Center
03:27PM 36.6825 -112.1747 66° East 481 554 36,600 480 Climbing Los Angeles Center
03:28PM 36.7450 -111.9919 67° East 481 554 37,000 180 Climbing Los Angeles Center
03:29PM 36.7997 -111.8342 67° East 493 567 37,000  Level Los Angeles Center
03:30PM 36.8547 -111.6717 67° East 507 583 37,000  Level Los Angeles Center
03:31PM 36.9122 -111.5061 66° East 519 597 37,000  Level Los Angeles Center
03:32PM 36.9692 -111.3383 67° East 521 600 37,000  Level Los Angeles Center
03:34PM 37.0422 -111.1403 65° Northeast 523 602 37,000  Level Los Angeles Center
03:35PM 37.1244 -110.9083 66° East 524 603 37,000  Level Denver Center
03:36PM 37.1833 -110.7411 66° East 524 603 37,000  Level Denver Center
03:37PM 37.2422 -110.5750 66° East 524 603 37,000  Level Denver Center
03:38PM 37.3017 -110.4089 66° East 524 603 37,000  Level Denver Center
03:39PM 37.3603 -110.2431 66° East 524 603 37,000  Level Denver Center
03:40PM 37.4228 -110.0656 66° East 523 602 37,000  Level Denver Center
03:41PM 37.4869 -109.8806 66° East 517 595 37,000  Level Denver Center
03:42PM 37.5397 -109.7214 67° East 517 595 37,000  Level Denver Center
03:43PM 37.6036 -109.5364 66° East 516 594 37,000  Level Denver Center
03:44PM 37.6578 -109.3778 67° East 516 594 37,000  Level Denver Center
03:45PM 37.7197 -109.1931 67° East 514 592 37,000  Level Denver Center
03:46PM 37.7736 -109.0347 67° East 513 590 37,000  Level Denver Center
03:47PM 37.8253 -108.8467 71° East 513 590 37,000  Level Denver Center
03:48PM 37.8564 -108.6775 77° East 513 590 37,000  Level Denver Center
03:49PM 37.8922 -108.4808 77° East 514 592 37,000  Level Denver Center
03:50PM 37.9239 -108.3122 77° East 514 592 37,000  Level Denver Center
03:51PM 37.9608 -108.1144 77° East 514 592 37,000  Level Denver Center
03:53PM 37.9914 -107.9464 77° East 514 592 37,000  Level Denver Center
03:54PM 38.0269 -107.7481 77° East 515 593 37,000  Level Denver Center
03:55PM 38.0578 -107.5764 77° East 518 596 37,000  Level Denver Center
03:56PM 38.0928 -107.3767 77° East 519 597 37,000  Level Denver Center
03:57PM 38.1236 -107.2064 77° East 519 597 37,000  Level Denver Center
03:58PM 38.1539 -107.0267 78° East 517 595 37,000  Level Denver Center
03:59PM 38.1867 -106.8381 77° East 517 595 37,000  Level Denver Center
04:00PM 38.2144 -106.6669 78° East 518 596 37,000  Level Denver Center
04:01PM 38.2453 -106.4892 77° East 522 601 37,000  Level Denver Center
04:02PM 38.2811 -106.2739 78° East 522 601 37,000  Level Denver Center
04:03PM 38.3125 -106.0858 78° East 521 600 37,000  Level Denver Center
04:04PM 38.3408 -105.9069 79° East 517 595 37,000  Level Denver Center
04:05PM 38.3742 -105.7122 78° East 518 596 37,000 300 Level Denver Center
04:06PM 38.4011 -105.5361 79° East 513 590 37,700 780 Climbing Denver Center
04:07PM 38.4281 -105.3650 79° East 500 575 38,700 600 Climbing Denver Center
04:08PM 38.4533 -105.1983 79° East 488 562 39,000 120 Climbing Denver Center
04:09PM 38.4800 -105.0311 78° East 487 560 39,000  Level Denver Center
04:10PM 38.5061 -104.8592 79° East 490 564 39,000  Level Denver Center
04:11PM 38.5381 -104.6494 79° East 499 574 39,000  Level Denver Center
04:12PM 38.5647 -104.4739 79° East 505 581 39,000  Level Denver Center
04:13PM 38.5908 -104.2958 79° East 509 586 39,000  Level Denver Center
04:14PM 38.6169 -104.1194 79° East 509 586 39,000  Level Denver Center
04:15PM 38.6475 -103.9111 79° East 509 586 39,000  Level Denver Center
04:16PM 38.6728 -103.7303 80° East 513 590 39,000  Level Denver Center
04:17PM 38.6981 -103.5492 80° East 514 592 39,000  Level Denver Center
04:18PM 38.7244 -103.3672 79° East 515 593 39,000  Level Denver Center
04:19PM 38.7503 -103.1853 80° East 518 596 39,000  Level Denver Center
04:20PM 38.7733 -103.0042 81° East 518 596 39,000  Level Denver Center
04:21PM 38.8039 -102.7864 80° East 518 596 39,000  Level Denver Center
04:23PM 38.8269 -102.6067 81° East 518 596 39,000  Level Denver Center
04:24PM 38.8506 -102.4336 80° East 517 595 39,000  Level Denver Center
04:25PM 38.8761 -102.2317 81° East 517 595 39,000  Level Denver Center
04:26PM 38.8989 -102.0558 80° East 517 595 39,000  Level Denver Center
04:27PM 38.9244 -101.8525 81° East 517 595 39,000  Level Denver Center
04:28PM 38.9461 -101.6772 81° East 517 595 39,000  Level Denver Center
04:29PM 38.9731 -101.4725 80° East 518 596 39,000  Level Denver Center
04:30PM 39.0142 -101.3019 73° East 520 598 39,000  Level Denver Center
04:31PM 39.0578 -101.1164 73° East 520 598 39,000  Level Denver Center
04:32PM 39.1050 -100.9164 73° East 521 600 39,000  Level Denver Center
04:33PM 39.1447 -100.7419 74° East 524 603 39,000  Level Denver Center
04:34PM 39.1625 -100.5661 83° East 524 603 39,000  Level Denver Center
04:35PM 39.1836 -100.3581 82° East 524 603 39,000  Level Denver Center
04:36PM 39.2022 -100.1792 82° East 525 604 39,000  Level Denver Center
04:37PM 39.2236 -99.9806 82° East 526 605 39,000  Level Denver Center
04:38PM 39.2433 -99.7911 82° East 527 606 39,000  Level Denver Center
04:39PM 39.2642 -99.5789 83° East 531 611 39,000  Level Denver Center
04:40PM 39.2819 -99.3972 83° East 534 615 39,000  Level Denver Center
04:41PM 39.3019 -99.1853 83° East 534 615 39,000  Level Denver Center
04:42PM 39.3192 -99.0028 83° East 534 615 39,000  Level Denver Center
04:43PM 39.3386 -98.7958 83° East 536 617 39,000  Level Denver Center
04:44PM 39.3561 -98.6061 83° East 536 617 39,000  Level Denver Center
04:45PM 39.3731 -98.4167 83° East 534 615 39,000  Level Denver Center
04:46PM 39.3936 -98.1894 83° East 533 613 39,000  Level Denver Center
04:47PM 39.4072 -98.0211 84° East 531 611 39,000  Level Kansas City Center
04:48PM 39.4264 -97.8100 83° East 535 616 39,000  Level Kansas City Center
04:49PM 39.4425 -97.6186 84° East 536 617 39,000  Level Kansas City Center
04:51PM 39.4592 -97.4103 84° East 534 615 39,000  Level Kansas City Center
04:52PM 39.4747 -97.2172 84° East 534 615 39,000  Level Kansas City Center
04:53PM 39.4897 -97.0247 84° East 537 618 39,000  Level Kansas City Center
04:54PM 39.5047 -96.8311 84° East 538 619 39,000  Level Kansas City Center
04:55PM 39.5225 -96.6000 84° East 538 619 39,000  Level Kansas City Center
04:56PM 39.5356 -96.4042 85° East 541 623 39,000  Level Kansas City Center
04:57PM 39.5500 -96.2106 84° East 541 623 39,000  Level Kansas City Center
04:58PM 39.5636 -96.0169 85° East 540 621 39,000  Level Kansas City Center
04:59PM 39.5758 -95.8239 85° East 540 621 39,000  Level Kansas City Center
05:00PM 39.5886 -95.6286 85° East 540 621 39,000  Level Kansas City Center
05:01PM 39.6014 -95.4333 85° East 540 621 39,000  Level Kansas City Center
05:02PM 39.6153 -95.1972 86° East 540 621 39,000  Level Kansas City Center
05:03PM 39.6267 -95.0008 86° East 541 623 39,000  Level Kansas City Center
05:04PM 39.6378 -94.8042 86° East 541 623 39,000  Level Kansas City Center
05:05PM 39.6494 -94.6089 86° East 541 623 39,000  Level Kansas City Center
05:06PM 39.6594 -94.4128 86° East 542 624 39,000  Level Kansas City Center
05:07PM 39.6703 -94.2167 86° East 543 625 39,000  Level Kansas City Center
05:08PM 39.6797 -94.0219 86° East 543 625 39,000  Level Kansas City Center
05:09PM 39.6922 -93.7867 86° East 543 625 39,000  Level Kansas City Center
05:10PM 39.6992 -93.6103 87° East 543 625 39,000  Level Kansas City Center
05:11PM 39.7083 -93.4142 86° East 545 627 39,000  Level Kansas City Center
05:12PM 39.7203 -93.1853 86° East 544 626 39,000  Level Kansas City Center
05:13PM 39.7278 -92.9906 87° East 544 626 39,000  Level Kansas City Center
05:14PM 39.7358 -92.7953 87° East 545 627 39,000  Level Kansas City Center
05:15PM 39.7428 -92.6028 87° East 545 627 39,000  Level Kansas City Center
05:16PM 39.7514 -92.3717 87° East 545 627 39,000  Level Kansas City Center
05:17PM 39.7583 -92.1781 87° East 545 627 39,000  Level Kansas City Center
05:18PM 39.7644 -91.9822 88° East 545 627 39,000  Level Kansas City Center
05:19PM 39.7708 -91.7869 88° East 546 628 39,000  Level Kansas City Center
05:21PM 39.7786 -91.5508 87° East 547 629 39,000  Level Kansas City Center
05:22PM 39.7839 -91.3519 88° East 551 634 39,000  Level Kansas City Center
05:23PM 39.7900 -91.1531 88° East 553 636 39,000  Level Kansas City Center
05:24PM 39.7944 -90.9653 88° East 554 638 39,000  Level Kansas City Center
05:25PM 39.8006 -90.7233 88° East 556 640 39,000  Level Kansas City Center
05:26PM 39.8047 -90.5225 88° East 557 641 39,000  Level Kansas City Center
05:27PM 39.8083 -90.3214 89° East 557 641 39,000  Level Kansas City Center
05:28PM 39.8117 -90.1194 89° East 558 642 39,000  Level Kansas City Center
05:29PM 39.8156 -89.9175 88° East 558 642 39,000  Level Kansas City Center
05:30PM 39.8183 -89.6733 89° East 562 647 39,000  Level Kansas City Center
05:31PM 39.8206 -89.4697 89° East 563 648 39,000  Level Kansas City Center
05:32PM 39.8239 -89.2667 89° East 563 648 39,000  Level Kansas City Center
05:33PM 39.8242 -89.0628 90° East 563 648 39,000  Level Kansas City Center
05:34PM 39.8264 -88.8583 89° East 564 649 39,000  Level Kansas City Center
05:35PM 39.8275 -88.6536 90° East 566 651 39,000  Level Kansas City Center
05:36PM 39.8289 -88.4078 89° East 566 651 39,000  Level Kansas City Center
05:37PM 39.8283 -88.2014 90° East 568 654 39,000  Level Kansas City Center
05:38PM 39.8292 -87.9961 90° East 568 654 39,000  Level Kansas City Center
05:39PM 39.8278 -87.8661 91° East 571 657 39,000  Level Indianapolis Center
05:40PM 39.8269 -87.6583 90° East 572 658 39,000  Level Indianapolis Center
05:41PM 39.8267 -87.4506 90° East 572 658 39,000  Level Indianapolis Center
05:42PM 39.8253 -87.2425 90° East 573 659 39,000  Level Indianapolis Center
05:43PM 39.8233 -87.0333 91° East 575 662 39,000  Level Indianapolis Center
05:44PM 39.8364 -86.8267 85° East 577 664 39,000  Level Indianapolis Center
05:45PM 39.8717 -86.5800 79° East 577 664 39,000 -120 Level Indianapolis Center
05:46PM 39.9000 -86.3708 80° East 577 664 38,800 -840 Descending Indianapolis Center
05:47PM 39.9278 -86.1550 80° East 584 672 37,300 -1,620 Descending Indianapolis Center
05:48PM 39.9542 -85.9453 81° East 585 673 35,500 -1,740 Descending Indianapolis Center
05:49PM 39.9789 -85.7550 80° East 543 625 33,800 -1,800 Descending Indianapolis Center
05:50PM 40.0006 -85.5783 81° East 502 578 31,900 -2,100 Descending Indianapolis Center
05:51PM 40.0208 -85.4061 81° East 485 558 29,500 -1,440 Descending Indianapolis Center
05:52PM 40.0486 -85.2342 78° East 485 558 29,000 -840 Descending Indianapolis Center
05:53PM 40.0942 -85.0267 74° East 492 566 27,800 -1,500 Descending Indianapolis Center
05:54PM 40.1261 -84.8619 76° East 506 582 25,900 -1,860 Descending Indianapolis Center
05:55PM 40.1606 -84.6894 75° East 497 572 24,000 -960 Descending Indianapolis Center
05:56PM 40.1936 -84.5203 76° East 485 558 24,000 -1,080 Level Indianapolis Center
05:57PM 40.2361 -84.3108 75° East 493 567 21,800 -2,280 Descending Indianapolis Center
05:58PM 40.2708 -84.1358 75° East 496 571 19,300 -2,460 Descending Indianapolis Center
05:59PM 40.3022 -83.9639 76° East 491 565 16,800 -2,520 Descending Indianapolis Center
06:00PM 40.3364 -83.7994 75° East 473 544 14,200 -2,640 Descending Indianapolis Center
06:01PM 40.3522 -83.7133 76° East 428 493 12,800 -2,460 Descending Indianapolis Center
06:01PM 40.3661 -83.6517 74° East 425 489 11,700 -1,620 Descending Indianapolis Center
06:02PM 40.3828 -83.5564 77° East 392 451 11,000 -780 Descending Indianapolis Center
06:02PM 40.3800 -83.5139 95° East 387 445 10,900 -720 Descending Indianapolis Center
06:03PM 40.3397 -83.4392 125° Southeast 346 398 10,300 -900 Descending Indianapolis Center
06:03PM 40.3250 -83.4108 124° Southeast 355 409 10,000 -1,560 Descending Indianapolis Center
06:04PM 40.2958 -83.3522 123° Southeast 304 350 8,900 -2,460 Descending Indianapolis Center
06:04PM 40.2708 -83.2981 121° Southeast 311 358 7,500 -1,380 Descending Indianapolis Center
06:06PM 40.2347 -83.2147 120° Southeast 273 314 6,700 -1,020 Descending Indianapolis Center
06:06PM 40.2136 -83.1603 117° Southeast 240 276 5,800 -1,260 Descending Indianapolis Center
06:07PM 40.2053 -83.1394 118° Southeast 241 277 5,400 -1,560 Descending Indianapolis Center
06:07PM 40.1883 -83.0933 116° Southeast 228 262 4,400 -1,260 Descending Indianapolis Center
06:08PM 40.1781 -83.0656 116° Southeast 234 269 4,100 -840 Descending Indianapolis Center
06:08PM 40.1572 -83.0250 124° Southeast 216 249 3,600 -900 Descending Indianapolis Center
06:09PM 40.1472 -82.9983 116° Southeast 224 258 3,200 -900 Descending Indianapolis Center
06:09PM 40.1264 -82.9736 138° Southeast 174 200 2,700 -600 Descending Indianapolis Center
06:10PM 40.1083 -82.9664 163° South 189 217 2,600 -420 Descending Indianapolis Center
06:10PM 40.0794 -82.9797 199° South 171 197 2,300 -720 Descending Indianapolis Center
06:11PM 40.0789 -83.0072 268° West 174 200 1,900 -900 Descending Indianapolis Center
06:11PM 40.0789 -83.0317 270° West 153 176 1,500 -720 Descending Indianapolis Center
06:12PM 40.0772 -83.0664 266° West 161 185 1,200 -480 Descending Indianapolis Center
06:14PM 40.0667 -83.0667 270° West  Level FlightAware Approximate